createdAt,value
2023-02-23T00:00:28.504Z,6.98
2023-02-23T00:02:56.104Z,6.78
2023-02-23T00:05:22.462Z,6.51
2023-02-23T00:07:48.769Z,6.74
2023-02-23T00:10:15.096Z,6.77
2023-02-23T00:12:41.450Z,6.79
2023-02-23T00:15:07.786Z,6.78
2023-02-23T00:17:36.706Z,6.79
2023-02-23T00:20:07.705Z,6.66
2023-02-23T00:22:34.035Z,6.52
2023-02-23T00:25:00.781Z,6.49
2023-02-23T00:27:27.646Z,6.37
2023-02-23T00:29:54.008Z,6.30
2023-02-23T00:32:20.864Z,6.47
2023-02-23T00:34:49.953Z,6.45
2023-02-23T00:37:16.285Z,6.32
2023-02-23T00:39:42.652Z,6.43
2023-02-23T00:42:08.997Z,6.46
2023-02-23T00:44:35.370Z,6.27
2023-02-23T00:47:01.685Z,6.34
2023-02-23T00:49:28.029Z,6.34
2023-02-23T00:51:54.346Z,6.23
2023-02-23T00:54:20.655Z,6.31
2023-02-23T00:56:47.124Z,6.30
2023-02-23T00:59:13.463Z,6.16
2023-02-23T01:01:41.812Z,6.19
2023-02-23T01:04:08.343Z,6.30
2023-02-23T01:06:34.657Z,6.34
2023-02-23T01:09:05.384Z,6.35
2023-02-23T01:11:31.707Z,6.48
2023-02-23T01:13:58.145Z,6.62
2023-02-23T01:16:28.094Z,6.74
2023-02-23T01:18:54.407Z,6.78
2023-02-23T01:21:20.828Z,6.87
2023-02-23T01:23:47.201Z,7.03
2023-02-23T01:26:13.644Z,7.06
2023-02-23T01:28:39.974Z,7.15
2023-02-23T01:31:06.377Z,7.19
2023-02-23T01:33:32.772Z,7.21
2023-02-23T01:35:59.085Z,7.19
2023-02-23T01:38:25.419Z,7.24
2023-02-23T01:40:51.770Z,7.26
2023-02-23T01:43:18.090Z,7.36
2023-02-23T01:45:44.446Z,7.35
2023-02-23T01:48:12.605Z,7.38
2023-02-23T01:50:38.959Z,7.46
2023-02-23T01:53:05.281Z,7.48
2023-02-23T01:55:31.641Z,7.42
2023-02-23T01:57:59.618Z,7.53
2023-02-23T02:00:26.433Z,7.60
2023-02-23T02:02:52.760Z,7.61
2023-02-23T02:05:19.111Z,7.59
2023-02-23T02:07:45.459Z,7.60
2023-02-23T02:10:11.789Z,7.62
2023-02-23T02:12:38.941Z,7.65
2023-02-23T02:15:05.314Z,7.74
2023-02-23T02:17:31.661Z,7.76
2023-02-23T02:19:58.001Z,7.75
2023-02-23T02:22:25.752Z,7.79
2023-02-23T02:24:52.557Z,7.75
2023-02-23T02:27:19.381Z,7.80
2023-02-23T02:29:45.702Z,7.76
2023-02-23T02:32:12.097Z,7.76
2023-02-23T02:34:38.425Z,7.76
2023-02-23T02:37:04.729Z,7.86
2023-02-23T02:39:37.165Z,7.80
2023-02-23T02:42:03.543Z,7.85
2023-02-23T02:44:29.840Z,7.82
2023-02-23T02:46:57.528Z,7.80
2023-02-23T02:49:23.883Z,7.84
2023-02-23T02:51:50.255Z,7.86
2023-02-23T02:54:16.558Z,7.89
2023-02-23T02:56:42.884Z,7.68
2023-02-23T02:59:28.186Z,7.61
2023-02-23T03:02:13.428Z,7.63
2023-02-23T03:04:58.607Z,7.66
2023-02-23T03:07:43.841Z,7.60
2023-02-23T03:10:28.723Z,7.59
2023-02-23T03:13:13.661Z,7.55
2023-02-23T03:15:58.779Z,7.67
2023-02-23T03:18:43.672Z,7.69
2023-02-23T03:21:28.532Z,7.68
2023-02-23T03:24:13.567Z,7.69
2023-02-23T03:26:58.426Z,7.66
2023-02-23T03:29:43.455Z,7.73
2023-02-23T03:32:28.480Z,7.74
2023-02-23T03:35:13.778Z,7.67
2023-02-23T03:37:58.657Z,7.71
2023-02-23T03:40:43.631Z,7.63
2023-02-23T03:43:28.549Z,7.69
2023-02-23T03:46:13.451Z,7.74
2023-02-23T03:48:58.728Z,7.68
2023-02-23T03:51:43.687Z,7.66
2023-02-23T03:54:28.763Z,7.68
2023-02-23T03:57:13.616Z,7.67
2023-02-23T03:59:58.862Z,7.65
2023-02-23T04:02:43.676Z,7.72
2023-02-23T04:05:28.792Z,7.71
2023-02-23T04:08:13.718Z,7.68
2023-02-23T04:10:58.757Z,7.63
2023-02-23T04:13:25.075Z,7.58
2023-02-23T04:15:51.428Z,7.65
2023-02-23T04:18:17.762Z,7.67
2023-02-23T04:20:44.105Z,7.70
2023-02-23T04:23:10.473Z,7.74
2023-02-23T04:25:36.784Z,7.70
2023-02-23T04:28:03.679Z,7.67
2023-02-23T04:30:30.510Z,7.65
2023-02-23T04:32:56.884Z,7.68
2023-02-23T04:35:23.460Z,7.72
2023-02-23T04:37:49.784Z,7.76
2023-02-23T04:40:16.099Z,7.78
2023-02-23T04:42:42.489Z,7.74
2023-02-23T04:45:08.812Z,7.75
2023-02-23T04:47:35.136Z,7.67
2023-02-23T04:50:01.491Z,7.71
2023-02-23T04:52:27.810Z,7.73
2023-02-23T04:54:54.146Z,7.79
2023-02-23T04:57:20.458Z,7.73
2023-02-23T04:59:46.811Z,7.76
2023-02-23T05:02:13.170Z,7.83
2023-02-23T05:04:39.505Z,7.81
2023-02-23T05:07:05.824Z,7.75
2023-02-23T05:09:32.391Z,7.78
2023-02-23T05:11:58.725Z,7.77
2023-02-23T05:14:25.183Z,7.74
2023-02-23T05:16:51.520Z,7.68
2023-02-23T05:19:18.297Z,7.65
2023-02-23T05:21:44.872Z,7.72
2023-02-23T05:24:11.176Z,7.68
2023-02-23T05:26:37.477Z,7.62
2023-02-23T05:29:04.079Z,7.65
2023-02-23T05:31:30.538Z,7.57
2023-02-23T05:33:56.928Z,7.60
2023-02-23T05:36:23.258Z,7.55
2023-02-23T05:38:49.563Z,7.54
2023-02-23T05:41:15.883Z,7.58
2023-02-23T05:43:42.311Z,7.59
2023-02-23T05:46:08.680Z,7.48
2023-02-23T05:48:35.113Z,7.42
2023-02-23T05:51:01.428Z,7.42
2023-02-23T05:53:28.340Z,7.35
2023-02-23T05:55:54.791Z,7.39
2023-02-23T05:58:21.143Z,7.30
2023-02-23T06:00:47.451Z,7.17
2023-02-23T06:03:14.509Z,7.26
2023-02-23T06:05:41.594Z,7.20
2023-02-23T06:08:07.914Z,7.18
2023-02-23T06:10:34.225Z,7.14
2023-02-23T06:13:00.555Z,7.16
2023-02-23T06:15:29.060Z,7.14
2023-02-23T06:17:56.491Z,7.07
2023-02-23T06:20:22.929Z,7.21
2023-02-23T06:22:49.248Z,7.19
2023-02-23T06:25:15.580Z,7.21
2023-02-23T06:27:42.376Z,7.30
2023-02-23T06:30:08.699Z,7.24
2023-02-23T06:32:35.056Z,7.32
2023-02-23T06:35:01.805Z,7.35
2023-02-23T06:37:28.120Z,7.37
2023-02-23T06:39:54.423Z,7.41
2023-02-23T06:42:20.740Z,7.42
2023-02-23T06:44:47.060Z,7.41
2023-02-23T06:47:13.462Z,7.53
2023-02-23T06:49:40.676Z,7.54
2023-02-23T06:52:07.038Z,7.56
2023-02-23T06:54:34.373Z,7.53
2023-02-23T06:57:00.678Z,7.60
2023-02-23T06:59:27.015Z,7.65
2023-02-23T07:01:53.363Z,7.62
2023-02-23T07:04:19.789Z,7.69
2023-02-23T07:06:46.155Z,7.66
2023-02-23T07:09:12.501Z,7.69
2023-02-23T07:11:38.866Z,7.66
2023-02-23T07:14:05.216Z,7.77
2023-02-23T07:16:32.418Z,7.79
2023-02-23T07:18:58.759Z,7.88
2023-02-23T07:21:25.165Z,7.91
2023-02-23T07:23:51.523Z,7.90
2023-02-23T07:26:18.557Z,8.04
2023-02-23T07:28:44.908Z,8.08
2023-02-23T07:31:11.307Z,8.03
2023-02-23T07:33:37.735Z,8.08
2023-02-23T07:36:04.079Z,8.15
2023-02-23T07:38:30.500Z,8.20
2023-02-23T07:40:56.833Z,8.29
2023-02-23T07:43:23.595Z,8.37
2023-02-23T07:45:51.118Z,8.41
2023-02-23T07:48:17.452Z,8.58
2023-02-23T07:50:43.890Z,8.46
2023-02-23T07:53:10.358Z,8.63
2023-02-23T07:55:38.570Z,8.66
2023-02-23T07:58:05.953Z,8.56
2023-02-23T08:00:33.157Z,8.84
2023-02-23T08:02:59.531Z,8.90
2023-02-23T08:05:28.956Z,8.91
2023-02-23T08:07:56.020Z,8.88
2023-02-23T08:10:22.394Z,8.83
2023-02-23T08:12:48.755Z,9.04
2023-02-23T08:15:15.206Z,9.20
2023-02-23T08:17:41.568Z,9.06
2023-02-23T08:20:07.937Z,9.11
2023-02-23T08:22:48.431Z,9.19
2023-02-23T08:25:15.887Z,9.35
2023-02-23T08:27:42.520Z,9.62
2023-02-23T08:30:09.940Z,9.67
2023-02-23T08:32:36.305Z,9.62
2023-02-23T08:35:05.810Z,9.70
2023-02-23T08:37:32.404Z,9.62
2023-02-23T08:39:59.347Z,9.57
2023-02-23T08:42:25.680Z,9.73
2023-02-23T08:44:52.001Z,9.91
2023-02-23T08:47:22.008Z,10.10
2023-02-23T08:49:48.339Z,10.06
2023-02-23T08:52:14.718Z,10.33
2023-02-23T08:54:41.015Z,10.45
2023-02-23T08:57:07.342Z,10.50
2023-02-23T08:59:33.642Z,10.55
2023-02-23T09:01:59.986Z,10.56
2023-02-23T09:04:26.409Z,10.38
2023-02-23T09:06:52.765Z,10.32
2023-02-23T09:09:19.137Z,10.40
2023-02-23T09:11:45.505Z,10.31
2023-02-23T09:14:11.815Z,10.43
2023-02-23T09:16:38.114Z,10.42
2023-02-23T09:19:04.500Z,10.29
2023-02-23T09:21:34.382Z,10.32
2023-02-23T09:24:01.413Z,10.47
2023-02-23T09:26:29.414Z,10.57
2023-02-23T09:28:55.879Z,10.74
2023-02-23T09:31:22.779Z,10.70
2023-02-23T09:33:49.454Z,10.81
2023-02-23T09:36:16.410Z,10.84
2023-02-23T09:38:42.808Z,10.93
2023-02-23T09:41:09.119Z,11.13
2023-02-23T09:43:35.460Z,11.26
2023-02-23T09:46:01.800Z,11.05
2023-02-23T09:48:28.137Z,11.15
2023-02-23T09:50:55.146Z,11.10
2023-02-23T09:53:21.546Z,11.19
2023-02-23T09:55:47.915Z,11.45
2023-02-23T09:58:14.239Z,11.43
2023-02-23T10:00:40.558Z,11.75
2023-02-23T10:03:06.895Z,11.40
2023-02-23T10:05:34.198Z,11.70
2023-02-23T10:08:00.915Z,11.86
2023-02-23T10:10:28.038Z,11.90
2023-02-23T10:12:54.545Z,11.96
2023-02-23T10:15:20.876Z,12.06
2023-02-23T10:17:47.405Z,12.01
2023-02-23T10:20:13.784Z,12.74
2023-02-23T10:22:40.897Z,13.11
2023-02-23T10:25:07.391Z,13.01
2023-02-23T10:27:33.722Z,13.12
2023-02-23T10:30:01.555Z,12.54
2023-02-23T10:32:28.006Z,12.80
2023-02-23T10:34:54.461Z,12.80
2023-02-23T10:37:20.949Z,12.65
2023-02-23T10:39:49.973Z,12.87
2023-02-23T10:42:16.321Z,12.96
2023-02-23T10:44:42.614Z,12.89
2023-02-23T10:47:08.957Z,12.82
2023-02-23T10:49:35.358Z,12.86
2023-02-23T10:52:03.147Z,13.06
2023-02-23T10:54:29.540Z,13.28
2023-02-23T10:56:55.875Z,13.15
2023-02-23T10:59:22.219Z,13.06
2023-02-23T11:02:01.485Z,13.25
2023-02-23T11:04:28.890Z,13.48
2023-02-23T11:06:55.221Z,13.54
2023-02-23T11:09:24.782Z,13.64
2023-02-23T11:11:53.409Z,13.94
2023-02-23T11:14:19.917Z,13.94
2023-02-23T11:16:46.276Z,14.28
2023-02-23T11:19:12.640Z,14.62
2023-02-23T11:21:39.989Z,14.07
2023-02-23T11:24:06.430Z,14.29
2023-02-23T11:26:32.868Z,14.29
2023-02-23T11:28:59.271Z,14.31
2023-02-23T11:31:25.690Z,14.76
2023-02-23T11:33:52.058Z,14.92
2023-02-23T11:36:18.473Z,15.38
2023-02-23T11:38:44.769Z,14.91
2023-02-23T11:41:12.083Z,14.87
2023-02-23T11:43:38.401Z,15.36
2023-02-23T11:46:04.818Z,15.23
2023-02-23T11:48:31.176Z,15.76
2023-02-23T11:50:57.528Z,15.53
2023-02-23T11:53:24.751Z,15.71
2023-02-23T11:55:51.460Z,15.68
2023-02-23T11:58:17.788Z,15.88
2023-02-23T12:00:44.133Z,15.67
2023-02-23T12:03:10.598Z,15.33
2023-02-23T12:05:36.989Z,15.65
2023-02-23T12:08:03.322Z,15.52
2023-02-23T12:10:29.730Z,15.44
2023-02-23T12:12:56.091Z,15.42
2023-02-23T12:15:22.454Z,15.37
2023-02-23T12:17:48.770Z,14.92
2023-02-23T12:20:15.601Z,15.42
2023-02-23T12:22:42.332Z,15.17
2023-02-23T12:25:08.664Z,15.28
2023-02-23T12:27:34.998Z,15.39
2023-02-23T12:30:01.414Z,15.20
2023-02-23T12:32:27.933Z,15.22
2023-02-23T12:34:54.326Z,15.40
2023-02-23T12:37:20.632Z,15.36
2023-02-23T12:39:46.990Z,14.97
2023-02-23T12:42:13.383Z,15.05
2023-02-23T12:44:39.746Z,14.90
2023-02-23T12:47:06.085Z,15.07
2023-02-23T12:49:32.409Z,15.16
2023-02-23T12:51:58.726Z,15.35
2023-02-23T12:54:25.190Z,15.43
2023-02-23T12:56:51.584Z,15.58
2023-02-23T12:59:17.928Z,15.79
2023-02-23T13:01:44.308Z,15.83
2023-02-23T13:04:10.827Z,15.62
2023-02-23T13:06:37.188Z,15.42
2023-02-23T13:09:03.513Z,15.17
2023-02-23T13:11:30.287Z,15.48
2023-02-23T13:13:56.997Z,14.94
2023-02-23T13:16:23.347Z,14.99
2023-02-23T13:18:50.044Z,15.00
2023-02-23T13:21:16.408Z,15.13
2023-02-23T13:23:43.037Z,15.08
2023-02-23T13:26:10.948Z,15.11
2023-02-23T13:28:37.318Z,15.24
2023-02-23T13:31:05.856Z,15.30
2023-02-23T13:33:43.569Z,15.30
2023-02-23T13:36:12.990Z,14.69
2023-02-23T13:38:40.132Z,14.92
2023-02-23T13:41:06.524Z,14.86
2023-02-23T13:43:32.844Z,14.87
2023-02-23T13:45:59.183Z,14.81
2023-02-23T13:48:25.562Z,14.80
2023-02-23T13:50:51.888Z,14.67
2023-02-23T13:53:18.221Z,14.67
2023-02-23T13:55:49.913Z,14.56
2023-02-23T13:58:16.486Z,14.20
2023-02-23T14:00:42.858Z,14.14
2023-02-23T14:03:09.324Z,14.03
2023-02-23T14:05:35.726Z,14.23
2023-02-23T14:08:02.523Z,14.26
2023-02-23T14:10:28.851Z,14.28
2023-02-23T14:12:55.165Z,14.40
2023-02-23T14:15:21.528Z,14.48
2023-02-23T14:17:50.692Z,14.48
2023-02-23T14:20:29.272Z,14.49
2023-02-23T14:22:57.045Z,13.93
2023-02-23T14:25:23.423Z,13.80
2023-02-23T14:27:49.830Z,13.98
2023-02-23T14:30:16.188Z,14.02
2023-02-23T14:32:42.647Z,13.79
2023-02-23T14:35:09.032Z,13.78
2023-02-23T14:37:35.407Z,13.62
2023-02-23T14:40:01.812Z,13.53
2023-02-23T14:42:28.254Z,13.54
2023-02-23T14:44:54.651Z,13.54
2023-02-23T14:47:21.095Z,13.40
2023-02-23T14:49:47.413Z,13.32
2023-02-23T14:52:13.774Z,13.32
2023-02-23T14:54:40.225Z,13.30
2023-02-23T14:57:06.611Z,13.20
2023-02-23T14:59:32.948Z,13.15
2023-02-23T15:01:59.349Z,13.02
2023-02-23T15:04:27.246Z,12.99
2023-02-23T15:06:53.662Z,12.96
2023-02-23T15:09:20.056Z,12.88
2023-02-23T15:11:48.725Z,12.68
2023-02-23T15:14:26.999Z,12.47
2023-02-23T15:16:54.108Z,12.20
2023-02-23T15:19:29.577Z,12.18
2023-02-23T15:21:55.923Z,11.98
2023-02-23T15:24:24.579Z,11.94
2023-02-23T15:26:50.987Z,11.91
2023-02-23T15:29:17.345Z,11.76
2023-02-23T15:31:53.358Z,11.82
2023-02-23T15:34:20.150Z,11.93
2023-02-23T15:36:47.410Z,11.98
2023-02-23T15:39:13.786Z,12.17
2023-02-23T15:41:42.676Z,12.27
2023-02-23T15:44:09.961Z,12.34
2023-02-23T15:46:37.720Z,12.35
2023-02-23T15:49:05.446Z,12.37
2023-02-23T15:51:32.117Z,12.37
2023-02-23T15:53:58.488Z,12.28
2023-02-23T15:56:24.868Z,12.40
2023-02-23T15:58:57.008Z,12.46
2023-02-23T16:01:25.029Z,12.33
2023-02-23T16:03:51.438Z,12.37
2023-02-23T16:06:17.810Z,12.35
2023-02-23T16:08:44.154Z,12.36
2023-02-23T16:11:12.069Z,12.28
2023-02-23T16:13:38.429Z,12.14
2023-02-23T16:16:06.078Z,12.14
2023-02-23T16:18:32.470Z,12.18
2023-02-23T16:20:58.861Z,12.11
2023-02-23T16:23:34.047Z,12.03
2023-02-23T16:26:01.660Z,12.08
2023-02-23T16:28:28.070Z,11.97
2023-02-23T16:30:57.312Z,11.96
2023-02-23T16:33:23.722Z,11.90
2023-02-23T16:35:50.164Z,11.88
2023-02-23T16:38:16.562Z,11.82
2023-02-23T16:40:42.913Z,11.56
2023-02-23T16:43:09.272Z,11.60
2023-02-23T16:45:35.798Z,11.49
2023-02-23T16:48:03.483Z,11.55
2023-02-23T16:50:30.298Z,11.63
2023-02-23T16:52:56.622Z,11.70
2023-02-23T16:55:26.155Z,11.58
2023-02-23T16:57:52.704Z,11.66
2023-02-23T17:00:20.645Z,11.65
2023-02-23T17:02:46.965Z,11.70
2023-02-23T17:05:19.048Z,11.66
2023-02-23T17:07:45.408Z,11.73
2023-02-23T17:10:11.790Z,11.72
2023-02-23T17:12:38.100Z,11.56
2023-02-23T17:15:04.459Z,11.46
2023-02-23T17:17:31.517Z,11.43
2023-02-23T17:19:57.847Z,11.51
2023-02-23T17:22:24.149Z,11.54
2023-02-23T17:24:53.879Z,11.51
2023-02-23T17:27:20.199Z,11.51
2023-02-23T17:29:46.547Z,11.54
2023-02-23T17:32:13.014Z,11.62
2023-02-23T17:34:39.360Z,11.58
2023-02-23T17:37:07.788Z,11.53
2023-02-23T17:39:34.398Z,11.51
2023-02-23T17:42:00.741Z,11.49
2023-02-23T17:44:27.091Z,11.42
2023-02-23T17:46:53.424Z,11.52
2023-02-23T17:49:19.858Z,11.51
2023-02-23T17:51:46.198Z,11.42
2023-02-23T17:54:12.902Z,11.16
2023-02-23T17:56:39.420Z,11.24
2023-02-23T17:59:05.879Z,11.30
2023-02-23T18:01:32.280Z,11.32
2023-02-23T18:04:00.253Z,11.34
2023-02-23T18:06:26.676Z,11.23
2023-02-23T18:08:53.001Z,11.23
2023-02-23T18:11:19.713Z,11.22
2023-02-23T18:13:47.884Z,11.14
2023-02-23T18:16:14.631Z,11.13
2023-02-23T18:18:41.092Z,11.13
2023-02-23T18:21:07.408Z,11.21
2023-02-23T18:23:36.756Z,11.07
2023-02-23T18:26:03.350Z,11.03
2023-02-23T18:28:30.078Z,10.89
2023-02-23T18:30:57.500Z,10.94
2023-02-23T18:33:23.899Z,10.77
2023-02-23T18:35:50.210Z,10.69
2023-02-23T18:38:16.593Z,10.75
2023-02-23T18:40:43.082Z,10.74
2023-02-23T18:43:09.592Z,10.81
2023-02-23T18:45:36.032Z,10.89
2023-02-23T18:48:02.570Z,10.85
2023-02-23T18:50:30.934Z,10.80
2023-02-23T18:52:59.105Z,10.82
2023-02-23T18:55:25.620Z,10.81
2023-02-23T18:57:52.867Z,10.59
2023-02-23T19:00:19.310Z,10.51
2023-02-23T19:02:48.866Z,10.57
2023-02-23T19:05:15.292Z,10.45
2023-02-23T19:07:41.642Z,10.58
2023-02-23T19:10:09.251Z,10.39
2023-02-23T19:12:35.610Z,10.38
2023-02-23T19:15:02.900Z,10.38
2023-02-23T19:17:29.243Z,10.11
2023-02-23T19:19:56.179Z,10.07
2023-02-23T19:22:22.519Z,10.30
2023-02-23T19:24:48.884Z,10.37
2023-02-23T19:27:15.894Z,10.35
2023-02-23T19:29:42.223Z,10.40
2023-02-23T19:32:09.554Z,10.35
2023-02-23T19:34:36.231Z,10.32
2023-02-23T19:37:02.554Z,10.38
2023-02-23T19:39:30.051Z,10.40
2023-02-23T19:41:56.414Z,10.40
2023-02-23T19:44:22.768Z,10.44
2023-02-23T19:46:49.110Z,10.52
2023-02-23T19:49:15.431Z,10.47
2023-02-23T19:51:41.808Z,10.45
2023-02-23T19:54:08.205Z,10.42
2023-02-23T19:56:34.602Z,10.46
2023-02-23T19:59:00.952Z,10.47
2023-02-23T20:01:30.437Z,10.44
2023-02-23T20:03:57.355Z,10.41
2023-02-23T20:06:23.865Z,10.35
2023-02-23T20:08:52.714Z,10.37
2023-02-23T20:11:19.534Z,10.17
2023-02-23T20:13:46.522Z,10.29
2023-02-23T20:16:12.962Z,10.24
2023-02-23T20:18:39.881Z,10.09
2023-02-23T20:21:07.787Z,10.17
2023-02-23T20:23:35.739Z,10.22
2023-02-23T20:26:02.050Z,10.19
2023-02-23T20:28:28.359Z,10.19
2023-02-23T20:30:54.730Z,10.24
2023-02-23T20:33:21.070Z,10.21
2023-02-23T20:35:47.492Z,10.10
2023-02-23T20:38:15.454Z,10.09
2023-02-23T20:40:41.799Z,10.13
2023-02-23T20:43:08.130Z,10.12
2023-02-23T20:45:34.470Z,10.07
2023-02-23T20:48:00.924Z,10.12
2023-02-23T20:50:29.014Z,10.15
2023-02-23T20:52:55.472Z,10.18
2023-02-23T20:55:26.433Z,10.10
2023-02-23T20:57:52.766Z,9.94
2023-02-23T21:00:29.519Z,9.94
2023-02-23T21:02:57.748Z,9.85
2023-02-23T21:05:24.313Z,9.88
2023-02-23T21:07:50.665Z,9.98
2023-02-23T21:10:16.999Z,9.98
2023-02-23T21:12:43.412Z,10.00
2023-02-23T21:15:09.714Z,9.99
2023-02-23T21:17:39.949Z,10.01
2023-02-23T21:20:06.822Z,9.90
2023-02-23T21:22:33.169Z,9.98
2023-02-23T21:25:00.819Z,10.05
2023-02-23T21:27:27.193Z,10.03
2023-02-23T21:29:55.452Z,10.13
2023-02-23T21:32:21.923Z,10.09
2023-02-23T21:34:48.290Z,10.06
2023-02-23T21:37:14.599Z,9.88
2023-02-23T21:39:41.396Z,10.00
2023-02-23T21:42:07.710Z,10.01
2023-02-23T21:44:34.096Z,10.16
2023-02-23T21:47:00.708Z,10.11
2023-02-23T21:49:27.002Z,10.13
2023-02-23T21:51:54.126Z,10.04
2023-02-23T21:54:21.577Z,10.12
2023-02-23T21:56:47.914Z,9.76
2023-02-23T21:59:14.320Z,9.68
2023-02-23T22:01:42.993Z,9.70
2023-02-23T22:04:09.416Z,9.54
2023-02-23T22:06:36.189Z,9.69
2023-02-23T22:09:03.295Z,9.53
2023-02-23T22:11:29.612Z,9.60
2023-02-23T22:13:59.081Z,9.48
2023-02-23T22:16:25.414Z,9.42
2023-02-23T22:18:51.825Z,9.47
2023-02-23T22:21:19.258Z,9.54
2023-02-23T22:23:48.037Z,9.57
2023-02-23T22:26:14.379Z,9.36
2023-02-23T22:28:40.706Z,9.41
2023-02-23T22:31:07.462Z,9.23
2023-02-23T22:33:33.863Z,9.16
2023-02-23T22:36:00.212Z,9.23
2023-02-23T22:38:26.528Z,9.12
2023-02-23T22:40:52.873Z,9.02
2023-02-23T22:43:22.106Z,8.96
2023-02-23T22:45:48.464Z,9.11
2023-02-23T22:48:14.783Z,8.91
2023-02-23T22:50:42.291Z,9.05
2023-02-23T22:53:08.602Z,9.04
2023-02-23T22:55:35.151Z,9.07
2023-02-23T22:58:01.542Z,9.09
2023-02-23T23:00:27.978Z,9.07
2023-02-23T23:02:54.390Z,9.10
2023-02-23T23:05:21.761Z,9.14
2023-02-23T23:07:48.106Z,8.99
2023-02-23T23:10:14.477Z,9.20
2023-02-23T23:12:40.813Z,8.82
2023-02-23T23:15:13.503Z,8.94
2023-02-23T23:17:39.842Z,8.90
2023-02-23T23:20:11.943Z,8.93
2023-02-23T23:22:38.703Z,9.07
2023-02-23T23:25:11.232Z,8.97
2023-02-23T23:27:41.449Z,9.08
2023-02-23T23:30:07.928Z,9.13
2023-02-23T23:32:34.288Z,8.97
2023-02-23T23:35:01.615Z,8.78
2023-02-23T23:37:29.242Z,8.95
2023-02-23T23:39:59.400Z,8.84
2023-02-23T23:42:25.906Z,8.75
2023-02-23T23:44:52.214Z,8.74
2023-02-23T23:47:18.838Z,8.75
2023-02-23T23:49:45.442Z,8.72
2023-02-23T23:52:17.898Z,8.56
2023-02-23T23:54:44.750Z,8.57
2023-02-23T23:57:11.862Z,8.79
2023-02-23T23:59:45.978Z,8.66
